createdAt,value
2016-08-30T00:00:58.157Z,21.59
2016-08-30T00:01:56.867Z,21.44
2016-08-30T00:02:56.172Z,21.64
2016-08-30T00:03:53.835Z,21.61
2016-08-30T00:04:53.845Z,21.75
2016-08-30T00:05:53.841Z,21.94
2016-08-30T00:06:53.836Z,21.95
2016-08-30T00:07:53.708Z,21.85
2016-08-30T00:08:53.709Z,21.91
2016-08-30T00:09:53.680Z,21.79
2016-08-30T00:10:53.654Z,21.53
2016-08-30T00:11:53.646Z,21.46
2016-08-30T00:12:53.670Z,21.53
2016-08-30T00:13:53.569Z,21.59
2016-08-30T00:14:53.536Z,21.59
2016-08-30T00:15:53.514Z,21.72
2016-08-30T00:16:54.652Z,21.88
2016-08-30T00:17:54.280Z,21.94
2016-08-30T00:18:53.453Z,21.88
2016-08-30T00:19:53.425Z,21.91
2016-08-30T00:20:53.392Z,21.88
2016-08-30T00:22:08.380Z,21.56
2016-08-30T00:22:53.362Z,21.44
2016-08-30T00:24:08.804Z,21.46
2016-08-30T00:24:53.308Z,21.39
2016-08-30T00:26:07.987Z,21.34
2016-08-30T00:26:53.254Z,21.34
2016-08-30T00:27:54.334Z,21.53
2016-08-30T00:28:53.226Z,21.53
2016-08-30T00:29:53.935Z,21.38
2016-08-30T00:30:53.550Z,21.59
2016-08-30T00:31:53.125Z,21.53
2016-08-30T00:32:53.110Z,21.51
2016-08-30T00:33:53.091Z,21.54
2016-08-30T00:34:53.822Z,21.69
2016-08-30T00:35:53.901Z,21.56
2016-08-30T00:36:53.013Z,21.63
2016-08-30T00:37:52.984Z,21.3
2016-08-30T00:38:52.970Z,21.29
2016-08-30T00:39:52.944Z,21.14
2016-08-30T00:40:52.913Z,21.11
2016-08-30T00:42:07.598Z,20.84
2016-08-30T00:42:53.616Z,20.93
2016-08-30T00:43:52.856Z,21.02
2016-08-30T00:44:52.799Z,21.09
2016-08-30T00:45:53.659Z,21.11
2016-08-30T00:46:52.761Z,21.13
2016-08-30T00:47:52.729Z,21.08
2016-08-30T00:48:52.718Z,21.05
2016-08-30T00:49:52.688Z,21.05
2016-08-30T00:51:07.374Z,20.96
2016-08-30T00:51:52.652Z,21.01
2016-08-30T00:52:53.376Z,21.02
2016-08-30T00:53:52.600Z,21.04
2016-08-30T00:54:52.557Z,21.02
2016-08-30T00:55:53.413Z,21.01
2016-08-30T00:56:54.054Z,20.99
2016-08-30T00:57:52.495Z,21.08
2016-08-30T00:58:52.471Z,21.06
2016-08-30T00:59:53.096Z,21.41
2016-08-30T01:00:53.569Z,21.69
2016-08-30T01:01:52.415Z,21.81
2016-08-30T01:02:52.383Z,21.9
2016-08-30T01:03:52.342Z,21.82
2016-08-30T01:04:52.393Z,21.81
2016-08-30T01:05:52.338Z,21.53
2016-08-30T01:06:52.280Z,21.17
2016-08-30T01:07:53.035Z,21.02
2016-08-30T01:09:06.910Z,20.98
2016-08-30T01:09:52.434Z,20.96
2016-08-30T01:10:52.621Z,20.96
2016-08-30T01:11:52.157Z,20.93
2016-08-30T01:12:52.110Z,21.08
2016-08-30T01:13:52.110Z,21.29
2016-08-30T01:14:52.075Z,21.27
2016-08-30T01:15:52.052Z,21.14
2016-08-30T01:16:52.322Z,21.01
2016-08-30T01:17:51.997Z,20.98
2016-08-30T01:18:52.015Z,20.95
2016-08-30T01:19:51.953Z,21.01
2016-08-30T01:20:52.680Z,20.96
2016-08-30T01:21:51.919Z,20.99
2016-08-30T01:23:51.845Z,20.99
2016-08-30T01:24:51.931Z,21.08
2016-08-30T01:25:51.791Z,20.98
2016-08-30T01:26:51.769Z,20.84
2016-08-30T01:27:51.816Z,20.81
2016-08-30T01:28:51.720Z,20.83
2016-08-30T01:29:52.088Z,20.69
2016-08-30T01:30:54.143Z,20.69
2016-08-30T01:31:51.638Z,20.74
2016-08-30T01:32:51.605Z,20.71
2016-08-30T01:33:51.588Z,20.71
2016-08-30T01:34:51.576Z,20.74
2016-08-30T01:35:51.537Z,20.66
2016-08-30T01:36:51.531Z,20.56
2016-08-30T01:37:51.508Z,20.42
2016-08-30T01:38:52.242Z,20.5
2016-08-30T01:39:51.435Z,20.33
2016-08-30T01:40:51.465Z,20.23
2016-08-30T01:41:51.403Z,20.18
2016-08-30T01:42:51.378Z,20.46
2016-08-30T01:43:51.345Z,20.39
2016-08-30T01:45:51.646Z,20.27
2016-08-30T01:47:06.220Z,20.24
2016-08-30T01:47:51.249Z,20.28
2016-08-30T01:49:06.695Z,20.42
2016-08-30T01:49:51.292Z,20.42
2016-08-30T01:50:51.932Z,20.42
2016-08-30T01:51:51.132Z,20.46
2016-08-30T01:52:51.888Z,20.34
2016-08-30T01:53:51.105Z,20.42
2016-08-30T01:54:51.086Z,20.33
2016-08-30T01:55:51.814Z,20.28
2016-08-30T01:56:51.059Z,20.42
2016-08-30T01:57:51.049Z,20.56
2016-08-30T01:58:50.970Z,20.54
2016-08-30T01:59:50.944Z,20.5
2016-08-30T02:00:50.930Z,20.54
2016-08-30T02:01:51.670Z,20.86
2016-08-30T02:02:50.882Z,20.91
2016-08-30T02:03:50.841Z,21.08
2016-08-30T02:05:50.793Z,20.89
2016-08-30T02:06:50.769Z,20.95
2016-08-30T02:07:50.783Z,21.04
2016-08-30T02:08:50.756Z,21.19
2016-08-30T02:09:50.805Z,21.06
2016-08-30T02:10:50.791Z,20.98
2016-08-30T02:12:20.037Z,21.05
2016-08-30T02:12:50.824Z,20.98
2016-08-30T02:14:05.299Z,20.95
2016-08-30T02:14:50.748Z,20.98
2016-08-30T02:15:50.748Z,20.66
2016-08-30T02:16:50.718Z,20.74
2016-08-30T02:17:50.809Z,20.69
2016-08-30T02:18:50.727Z,20.74
2016-08-30T02:19:50.750Z,20.62
2016-08-30T02:21:19.810Z,20.66
2016-08-30T02:22:05.201Z,20.65
2016-08-30T02:22:50.865Z,20.64
2016-08-30T02:24:05.840Z,20.53
2016-08-30T02:24:50.794Z,20.43
2016-08-30T02:25:51.433Z,20.3
2016-08-30T02:27:04.958Z,20.27
2016-08-30T02:27:50.798Z,20.28
2016-08-30T02:29:04.921Z,20.24
2016-08-30T02:30:19.591Z,20.28
2016-08-30T02:30:50.673Z,20.3
2016-08-30T02:32:04.849Z,20.25
2016-08-30T02:32:50.572Z,20.33
2016-08-30T02:34:05.286Z,20.23
2016-08-30T02:34:50.645Z,20.31
2016-08-30T02:35:50.662Z,20.33
2016-08-30T02:36:51.736Z,20.33
2016-08-30T02:37:51.365Z,20.41
2016-08-30T02:38:51.392Z,20.31
2016-08-30T02:39:52.047Z,20.21
2016-08-30T02:40:51.419Z,20.33
2016-08-30T02:41:50.505Z,20.21
2016-08-30T02:42:50.748Z,20.12
2016-08-30T02:43:50.719Z,20.15
2016-08-30T02:45:04.538Z,20.2
2016-08-30T02:45:49.791Z,20.03
2016-08-30T02:47:04.471Z,20.05
2016-08-30T02:47:50.723Z,20.02
2016-08-30T02:49:04.416Z,20.12
2016-08-30T02:49:49.698Z,20.24
2016-08-30T02:51:05.153Z,20.65
2016-08-30T02:51:49.661Z,20.66
2016-08-30T02:52:49.649Z,20.53
2016-08-30T02:53:49.578Z,20.39
2016-08-30T02:54:49.578Z,20.1
2016-08-30T02:55:49.592Z,20.28
2016-08-30T02:56:49.526Z,20.24
2016-08-30T02:57:49.489Z,20.25
2016-08-30T02:58:50.228Z,20.15
2016-08-30T02:59:50.480Z,20.23
2016-08-30T03:00:50.463Z,20.21
2016-08-30T03:01:49.433Z,20.16
2016-08-30T03:02:49.356Z,20.05
2016-08-30T03:03:49.338Z,19.94
2016-08-30T03:04:49.328Z,19.87
2016-08-30T03:06:04.329Z,19.93
2016-08-30T03:06:49.273Z,19.93
2016-08-30T03:08:03.957Z,19.88
2016-08-30T03:08:49.212Z,19.97
2016-08-30T03:09:49.288Z,20.2
2016-08-30T03:10:50.599Z,19.93
2016-08-30T03:11:49.134Z,19.88
2016-08-30T03:12:49.414Z,19.79
2016-08-30T03:13:49.086Z,19.91
2016-08-30T03:14:49.052Z,19.9
2016-08-30T03:15:49.030Z,20.06
2016-08-30T03:16:49.079Z,20.05
2016-08-30T03:17:49.068Z,20.05
2016-08-30T03:18:50.491Z,20.25
2016-08-30T03:19:48.931Z,20.39
2016-08-30T03:20:48.905Z,20.42
2016-08-30T03:21:48.910Z,20.69
2016-08-30T03:22:48.851Z,20.71
2016-08-30T03:24:03.836Z,20.56
2016-08-30T03:24:49.561Z,20.43
2016-08-30T03:25:48.773Z,20.12
2016-08-30T03:26:48.748Z,19.88
2016-08-30T03:27:48.716Z,19.75
2016-08-30T03:28:53.993Z,19.63
2016-08-30T03:29:48.678Z,19.55
2016-08-30T03:31:03.357Z,19.39
2016-08-30T03:31:48.631Z,19.48
2016-08-30T03:32:48.597Z,19.58
2016-08-30T03:33:48.602Z,19.5
2016-08-30T03:34:48.599Z,19.48
2016-08-30T03:35:48.569Z,19.36
2016-08-30T03:36:48.656Z,19.51
2016-08-30T03:37:48.476Z,19.69
2016-08-30T03:38:48.476Z,19.73
2016-08-30T03:39:48.682Z,19.76
2016-08-30T03:40:48.621Z,19.65
2016-08-30T03:41:49.210Z,19.68
2016-08-30T03:42:48.498Z,19.76
2016-08-30T03:44:03.037Z,19.46
2016-08-30T03:44:48.455Z,19.46
2016-08-30T03:45:48.532Z,19.28
2016-08-30T03:47:02.928Z,19.43
2016-08-30T03:47:48.528Z,19.54
2016-08-30T03:49:48.495Z,19.66
2016-08-30T03:50:48.437Z,19.61
2016-08-30T03:52:02.825Z,19.58
2016-08-30T03:52:48.902Z,19.66
2016-08-30T03:54:03.007Z,19.8
2016-08-30T03:54:48.506Z,19.88
2016-08-30T03:57:02.683Z,19.47
2016-08-30T03:58:02.658Z,19.36
2016-08-30T03:58:48.453Z,19.23
2016-08-30T04:00:03.037Z,19.2
2016-08-30T04:01:02.573Z,19.28
2016-08-30T04:01:48.408Z,19.36
2016-08-30T04:03:02.539Z,19.39
2016-08-30T04:03:48.454Z,19.21
2016-08-30T04:04:49.048Z,19.24
2016-08-30T04:05:48.285Z,19.13
2016-08-30T04:06:48.398Z,18.97
2016-08-30T04:07:48.393Z,18.91
2016-08-30T04:08:48.302Z,19.08
2016-08-30T04:09:48.575Z,19.11
2016-08-30T04:10:48.999Z,19.21
2016-08-30T04:11:49.257Z,19.01
2016-08-30T04:12:49.066Z,19.01
2016-08-30T04:13:47.696Z,18.99
2016-08-30T04:14:48.548Z,19.1
2016-08-30T04:15:48.573Z,19.13
2016-08-30T04:16:48.585Z,19.01
2016-08-30T04:18:02.449Z,19.1
2016-08-30T04:18:48.414Z,19.21
2016-08-30T04:20:02.086Z,19.17
2016-08-30T04:20:47.380Z,19.31
2016-08-30T04:22:02.037Z,19.14
2016-08-30T04:22:47.333Z,19.29
2016-08-30T04:24:02.352Z,19.31
2016-08-30T04:25:02.879Z,19.5
2016-08-30T04:26:01.940Z,19.55
2016-08-30T04:26:47.206Z,19.69
2016-08-30T04:27:47.209Z,19.65
2016-08-30T04:28:47.159Z,19.7
2016-08-30T04:29:47.152Z,19.48
2016-08-30T04:30:47.126Z,19.51
2016-08-30T04:31:47.073Z,19.4
2016-08-30T04:32:47.101Z,19.42
2016-08-30T04:33:47.039Z,19.38
2016-08-30T04:34:47.000Z,19.36
2016-08-30T04:35:48.226Z,19.38
2016-08-30T04:36:46.953Z,19.24
2016-08-30T04:37:46.926Z,19.11
2016-08-30T04:38:47.120Z,19.14
2016-08-30T04:39:46.894Z,19.23
2016-08-30T04:40:46.857Z,19.14
2016-08-30T04:42:46.790Z,18.99
2016-08-30T04:43:46.786Z,18.91
2016-08-30T04:44:46.770Z,18.84
2016-08-30T04:45:46.734Z,18.91
2016-08-30T04:46:46.692Z,18.91
2016-08-30T04:47:47.506Z,19.05
2016-08-30T04:49:01.339Z,18.97
2016-08-30T04:49:47.691Z,19.1
2016-08-30T04:51:01.314Z,19.17
2016-08-30T04:51:46.555Z,19.1
2016-08-30T04:52:46.539Z,19.14
2016-08-30T04:53:46.498Z,19.23
2016-08-30T04:54:47.160Z,19.32
2016-08-30T04:55:46.473Z,19.17
2016-08-30T04:56:47.261Z,19.21
2016-08-30T04:58:46.376Z,18.98
2016-08-30T04:59:46.373Z,18.9
2016-08-30T05:00:47.103Z,19.17
2016-08-30T05:01:46.367Z,19.13
2016-08-30T05:02:47.064Z,19.11
2016-08-30T05:03:46.346Z,19.15
2016-08-30T05:04:46.248Z,19.36
2016-08-30T05:05:46.270Z,19.21
2016-08-30T05:06:46.288Z,19.24
2016-08-30T05:07:46.989Z,19.14
2016-08-30T05:08:46.135Z,19.13
2016-08-30T05:09:46.090Z,19.15
2016-08-30T05:10:46.073Z,19.02
2016-08-30T05:11:46.060Z,18.94
2016-08-30T05:12:46.043Z,18.9
2016-08-30T05:13:45.998Z,18.91
2016-08-30T05:14:45.979Z,18.84
2016-08-30T05:15:45.947Z,18.95
2016-08-30T05:16:45.934Z,18.87
2016-08-30T05:17:46.665Z,18.91
2016-08-30T05:19:00.555Z,18.94
2016-08-30T05:19:45.845Z,18.9
2016-08-30T05:20:46.579Z,18.9
2016-08-30T05:21:45.900Z,19.15
2016-08-30T05:22:46.555Z,19.05
2016-08-30T05:23:45.757Z,19.11
2016-08-30T05:24:46.504Z,19.01
2016-08-30T05:25:46.130Z,19.1
2016-08-30T05:26:45.663Z,19.1
2016-08-30T05:27:45.646Z,19.17
2016-08-30T05:28:45.707Z,19.2
2016-08-30T05:29:45.632Z,19.17
2016-08-30T05:30:46.337Z,19.13
2016-08-30T05:31:47.372Z,19.14
2016-08-30T05:33:45.483Z,19.14
2016-08-30T05:34:45.464Z,19.13
2016-08-30T05:35:46.020Z,19.06
2016-08-30T05:36:46.452Z,19.21
2016-08-30T05:37:45.457Z,19.17
2016-08-30T05:38:46.533Z,19.25
2016-08-30T05:39:45.328Z,19.28
2016-08-30T05:40:45.373Z,19.36
2016-08-30T05:41:45.313Z,19.38
2016-08-30T05:42:47.155Z,19.4
2016-08-30T05:43:45.311Z,19.48
2016-08-30T05:44:59.963Z,19.61
2016-08-30T05:45:47.456Z,19.48
2016-08-30T05:46:45.282Z,19.46
2016-08-30T05:47:45.127Z,19.5
2016-08-30T05:48:45.101Z,19.42
2016-08-30T05:49:45.074Z,19.48
2016-08-30T05:50:45.060Z,19.66
2016-08-30T05:51:45.833Z,19.73
2016-08-30T05:52:45.785Z,19.7
2016-08-30T05:53:45.001Z,19.79
2016-08-30T05:57:59.975Z,20
2016-08-30T05:58:35.052Z,20.06
2016-08-30T05:59:34.714Z,20.08
2016-08-30T06:00:49.116Z,20.03
2016-08-30T06:01:45.914Z,19.98
2016-08-30T06:02:34.529Z,20
2016-08-30T06:03:34.925Z,20.02
2016-08-30T06:04:34.217Z,20.08
2016-08-30T06:05:35.069Z,20
2016-08-30T06:06:34.123Z,20.38
2016-08-30T06:07:34.040Z,20.23
2016-08-30T06:08:34.730Z,20.24
2016-08-30T06:09:34.230Z,20.1
2016-08-30T06:10:48.763Z,20.13
2016-08-30T06:11:33.998Z,20.08
2016-08-30T06:12:48.596Z,20.23
2016-08-30T06:13:33.916Z,20.1
2016-08-30T06:14:33.905Z,20.23
2016-08-30T06:15:33.833Z,20.2
2016-08-30T06:16:34.596Z,20.21
2016-08-30T06:17:33.928Z,20.13
2016-08-30T06:18:34.034Z,20.25
2016-08-30T06:19:33.731Z,20.21
2016-08-30T06:20:33.976Z,20.23
2016-08-30T06:21:34.083Z,20.28
2016-08-30T06:22:33.758Z,20.28
2016-08-30T06:23:33.843Z,20.34
2016-08-30T06:24:34.371Z,20.47
2016-08-30T06:25:33.565Z,20.54
2016-08-30T06:26:34.318Z,20.35
2016-08-30T06:27:34.974Z,20.47
2016-08-30T06:28:33.511Z,20.54
2016-08-30T06:29:33.970Z,20.39
2016-08-30T06:30:33.421Z,20.49
2016-08-30T06:31:33.510Z,20.39
2016-08-30T06:32:33.384Z,20.42
2016-08-30T06:33:33.373Z,20.5
2016-08-30T06:34:33.337Z,20.58
2016-08-30T06:36:33.333Z,20.69
2016-08-30T06:37:47.961Z,20.72
2016-08-30T06:38:33.249Z,20.69
2016-08-30T06:39:47.914Z,20.84
2016-08-30T06:40:33.213Z,20.8
2016-08-30T06:41:33.158Z,20.9
2016-08-30T06:42:33.148Z,20.93
2016-08-30T06:43:47.811Z,20.83
2016-08-30T06:44:33.099Z,20.93
2016-08-30T06:45:33.056Z,21.01
2016-08-30T06:46:33.047Z,21.05
2016-08-30T06:47:32.994Z,21.11
2016-08-30T06:48:32.997Z,21.06
2016-08-30T06:49:32.989Z,21.08
2016-08-30T06:50:32.958Z,21.23
2016-08-30T06:51:32.908Z,21.63
2016-08-30T06:52:32.872Z,21.67
2016-08-30T06:53:33.622Z,21.45
2016-08-30T06:54:47.526Z,21.35
2016-08-30T06:55:32.808Z,21.44
2016-08-30T06:56:32.889Z,21.61
2016-08-30T06:57:32.908Z,21.54
2016-08-30T06:58:32.849Z,21.45
2016-08-30T06:59:32.724Z,21.5
2016-08-30T07:00:32.686Z,21.5
2016-08-30T07:01:32.653Z,21.44
2016-08-30T07:02:32.684Z,21.39
2016-08-30T07:03:32.627Z,21.26
2016-08-30T07:04:32.573Z,21.64
2016-08-30T07:05:32.560Z,21.81
2016-08-30T07:06:32.555Z,21.67
2016-08-30T07:07:32.584Z,21.63
2016-08-30T07:08:32.500Z,21.72
2016-08-30T07:09:32.462Z,21.78
2016-08-30T07:10:32.433Z,21.71
2016-08-30T07:11:32.431Z,21.88
2016-08-30T07:12:33.199Z,21.88
2016-08-30T07:13:32.350Z,21.76
2016-08-30T07:14:32.310Z,21.78
2016-08-30T07:15:32.718Z,21.82
2016-08-30T07:16:32.396Z,21.59
2016-08-30T07:17:33.067Z,21.71
2016-08-30T07:18:32.203Z,21.74
2016-08-30T07:19:32.268Z,21.61
2016-08-30T07:20:32.256Z,21.82
2016-08-30T07:21:32.162Z,21.9
2016-08-30T07:23:32.487Z,21.85
2016-08-30T07:24:46.806Z,21.99
2016-08-30T07:25:33.358Z,22.06
2016-08-30T07:26:32.023Z,22.1
2016-08-30T07:27:32.112Z,22.13
2016-08-30T07:28:31.988Z,22.09
2016-08-30T07:29:31.943Z,22.13
2016-08-30T07:30:31.921Z,22.17
2016-08-30T07:31:32.713Z,22.13
2016-08-30T07:32:31.920Z,22.07
2016-08-30T07:33:31.853Z,22.1
2016-08-30T07:34:31.824Z,22.23
2016-08-30T07:35:32.630Z,22.22
2016-08-30T07:36:32.729Z,22.29
2016-08-30T07:37:32.571Z,22.46
2016-08-30T07:38:31.744Z,22.53
2016-08-30T07:39:31.703Z,22.54
2016-08-30T07:40:31.717Z,22.49
2016-08-30T07:41:31.665Z,22.54
2016-08-30T07:42:31.646Z,22.54
2016-08-30T07:44:31.581Z,22.47
2016-08-30T07:45:32.788Z,22.47
2016-08-30T07:46:31.605Z,22.41
2016-08-30T07:47:31.654Z,22.44
2016-08-30T07:48:31.492Z,22.57
2016-08-30T07:49:31.477Z,22.64
2016-08-30T07:50:31.533Z,22.69
2016-08-30T07:51:31.430Z,22.59
2016-08-30T07:52:31.425Z,22.8
2016-08-30T07:53:31.674Z,22.84
2016-08-30T07:55:32.080Z,22.65
2016-08-30T07:56:31.274Z,22.77
2016-08-30T07:57:31.315Z,22.49
2016-08-30T07:58:31.422Z,22.53
2016-08-30T07:59:31.346Z,22.68
2016-08-30T08:00:32.443Z,22.62
2016-08-30T08:01:31.212Z,22.74
2016-08-30T08:02:31.201Z,22.8
2016-08-30T08:03:31.109Z,22.82
2016-08-30T08:04:31.079Z,23.11
2016-08-30T08:05:46.861Z,23.12
2016-08-30T08:06:32.590Z,23.15
2016-08-30T08:07:31.771Z,23.11
2016-08-30T08:08:31.751Z,23.15
2016-08-30T08:09:31.748Z,23.27
2016-08-30T08:10:30.935Z,23.31
2016-08-30T08:11:30.896Z,23.35
2016-08-30T08:12:31.648Z,23.26
2016-08-30T08:13:30.859Z,23.27
2016-08-30T08:14:45.535Z,23.46
2016-08-30T08:15:30.827Z,23.27
2016-08-30T08:16:30.806Z,23.49
2016-08-30T08:17:30.810Z,23.5
2016-08-30T08:18:30.735Z,23.61
2016-08-30T08:19:30.731Z,23.62
2016-08-30T08:20:30.791Z,23.77
2016-08-30T08:21:31.476Z,23.6
2016-08-30T08:22:31.811Z,23.7
2016-08-30T08:23:30.636Z,23.65
2016-08-30T08:24:30.657Z,23.75
2016-08-30T08:25:30.604Z,23.71
2016-08-30T08:26:30.540Z,23.62
2016-08-30T08:27:30.766Z,23.79
2016-08-30T08:28:30.503Z,23.76
2016-08-30T08:29:30.494Z,23.5
2016-08-30T08:30:30.432Z,23.6
2016-08-30T08:31:30.423Z,23.83
2016-08-30T08:33:30.367Z,23.71
2016-08-30T08:34:45.103Z,23.79
2016-08-30T08:35:30.350Z,23.7
2016-08-30T08:36:30.288Z,23.8
2016-08-30T08:37:30.387Z,23.87
2016-08-30T08:38:30.301Z,23.85
2016-08-30T08:39:30.286Z,23.9
2016-08-30T08:40:30.486Z,23.92
2016-08-30T08:42:11.737Z,23.75
2016-08-30T08:42:30.285Z,23.8
2016-08-30T08:43:44.836Z,23.8
2016-08-30T08:44:31.130Z,23.8
2016-08-30T08:45:38.763Z,23.92
2016-08-30T08:46:31.475Z,23.97
2016-08-30T08:48:30.083Z,23.79
2016-08-30T08:50:30.141Z,23.89
2016-08-30T08:52:29.975Z,24.1
2016-08-30T08:53:44.838Z,24.12
2016-08-30T08:54:29.871Z,24.1
2016-08-30T08:55:29.976Z,24.16
2016-08-30T08:56:29.871Z,24.01
2016-08-30T08:57:29.818Z,24.2
2016-08-30T08:58:29.768Z,24.19
2016-08-30T08:59:29.763Z,24.08
2016-08-30T09:00:30.560Z,24.14
2016-08-30T09:01:29.710Z,24.08
2016-08-30T09:02:44.387Z,24
2016-08-30T09:03:29.782Z,24.01
2016-08-30T09:04:29.701Z,24.05
2016-08-30T09:05:30.710Z,24.12
2016-08-30T09:06:30.670Z,23.85
2016-08-30T09:07:29.614Z,23.72
2016-08-30T09:08:29.576Z,23.82
2016-08-30T09:09:29.480Z,23.9
2016-08-30T09:10:29.536Z,24.05
2016-08-30T09:11:29.470Z,24.01
2016-08-30T09:12:30.242Z,24.02
2016-08-30T09:13:29.428Z,23.9
2016-08-30T09:14:29.401Z,23.94
2016-08-30T09:15:29.368Z,24.12
2016-08-30T09:16:29.337Z,24.16
2016-08-30T09:17:29.557Z,24.29
2016-08-30T09:18:29.391Z,24.17
2016-08-30T09:19:29.254Z,24.35
2016-08-30T09:20:29.986Z,24.45
2016-08-30T09:21:29.205Z,24.35
2016-08-30T09:22:29.225Z,24.35
2016-08-30T09:23:29.194Z,24.37
2016-08-30T09:24:29.142Z,24.42
2016-08-30T09:25:30.335Z,24.29
2016-08-30T09:26:29.120Z,24.45
2016-08-30T09:27:29.910Z,24.56
2016-08-30T09:28:29.068Z,24.68
2016-08-30T09:29:29.154Z,24.8
2016-08-30T09:30:29.411Z,24.69
2016-08-30T09:31:30.540Z,24.68
2016-08-30T09:32:29.800Z,24.35
2016-08-30T09:33:28.993Z,24.37
2016-08-30T09:34:28.917Z,24.23
2016-08-30T09:35:28.876Z,24.37
2016-08-30T09:36:28.840Z,24.42
2016-08-30T09:37:28.821Z,24.42
2016-08-30T09:38:28.829Z,24.29
2016-08-30T09:39:29.553Z,24.31
2016-08-30T09:40:28.755Z,24.45
2016-08-30T09:41:28.726Z,24.53
2016-08-30T09:42:43.404Z,24.47
2016-08-30T09:43:28.672Z,24.45
2016-08-30T09:44:28.682Z,24.56
2016-08-30T09:45:28.607Z,24.54
2016-08-30T09:46:28.601Z,24.53
2016-08-30T09:47:28.608Z,24.57
2016-08-30T09:48:28.607Z,24.69
2016-08-30T09:49:30.096Z,24.9
2016-08-30T09:50:28.494Z,24.83
2016-08-30T09:51:29.548Z,24.69
2016-08-30T09:52:28.597Z,24.69
2016-08-30T09:53:29.986Z,24.35
2016-08-30T09:54:28.478Z,24.22
2016-08-30T09:55:28.393Z,24.47
2016-08-30T09:56:29.449Z,24.35
2016-08-30T09:57:29.094Z,24.29
2016-08-30T09:58:43.018Z,24.12
2016-08-30T09:59:29.058Z,24.07
2016-08-30T10:00:28.576Z,24.26
2016-08-30T10:01:28.269Z,24.17
2016-08-30T10:02:28.219Z,24.34
2016-08-30T10:03:28.219Z,24.2
2016-08-30T10:04:28.183Z,24.01
2016-08-30T10:05:28.171Z,24.13
2016-08-30T10:06:30.571Z,23.89
2016-08-30T10:07:32.698Z,23.85
2016-08-30T10:08:30.306Z,24.01
2016-08-30T10:09:30.073Z,24.07
2016-08-30T10:11:58.549Z,24.19
2016-08-30T10:13:02.765Z,24.44
2016-08-30T10:13:47.269Z,24.59
2016-08-30T10:14:45.789Z,24.67
2016-08-30T10:15:45.804Z,24.71
2016-08-30T10:16:46.831Z,24.92
2016-08-30T10:17:45.762Z,25.05
2016-08-30T10:19:01.157Z,24.73
2016-08-30T10:19:46.469Z,24.54
2016-08-30T10:21:00.332Z,24.68
2016-08-30T10:21:45.684Z,24.59
2016-08-30T10:23:00.330Z,24.68
2016-08-30T10:23:45.581Z,24.83
2016-08-30T10:24:51.787Z,24.95
2016-08-30T10:25:45.919Z,25.06
2016-08-30T10:26:46.320Z,25.19
2016-08-30T10:27:45.500Z,25.13
2016-08-30T10:28:45.443Z,25.22
2016-08-30T10:29:45.442Z,25.07
2016-08-30T10:30:46.972Z,25.13
2016-08-30T10:32:45.543Z,25.22
2016-08-30T10:33:45.401Z,25.31
2016-08-30T10:34:46.082Z,25.25
2016-08-30T10:35:45.418Z,25.3
2016-08-30T10:36:45.251Z,25.25
2016-08-30T10:37:45.242Z,25.2
2016-08-30T10:38:45.199Z,25.2
2016-08-30T10:39:45.944Z,25.49
2016-08-30T10:40:45.182Z,25.27
2016-08-30T10:41:45.153Z,25.31
2016-08-30T10:42:45.204Z,25.31
2016-08-30T10:43:45.864Z,25.15
2016-08-30T10:44:45.883Z,25.1
2016-08-30T10:45:45.079Z,25.05
2016-08-30T10:46:45.055Z,24.94
2016-08-30T10:47:45.742Z,25.15
2016-08-30T10:48:44.986Z,25.15
2016-08-30T10:49:44.961Z,25.06
2016-08-30T10:50:44.962Z,25.12
2016-08-30T10:51:44.958Z,25.17
2016-08-30T10:52:45.098Z,25.19
2016-08-30T10:53:44.940Z,25.25
2016-08-30T10:54:44.899Z,25.38
2016-08-30T10:55:44.874Z,25.37
2016-08-30T10:56:45.164Z,25.42
2016-08-30T10:57:44.781Z,25.47
2016-08-30T10:58:45.526Z,25.34
2016-08-30T10:59:45.488Z,25.43
2016-08-30T11:00:45.817Z,25.24
2016-08-30T11:01:44.681Z,25.13
2016-08-30T11:02:44.777Z,25.09
2016-08-30T11:03:44.726Z,24.98
2016-08-30T11:04:44.642Z,24.98
2016-08-30T11:05:44.570Z,25.22
2016-08-30T11:06:44.573Z,25.35
2016-08-30T11:07:44.523Z,25.39
2016-08-30T11:08:45.263Z,25.37
2016-08-30T11:09:44.527Z,25.28
2016-08-30T11:10:45.226Z,25.25
2016-08-30T11:11:44.504Z,25.24
2016-08-30T11:12:44.408Z,25.25
2016-08-30T11:13:45.953Z,25.44
2016-08-30T11:14:44.377Z,25.39
2016-08-30T11:15:44.352Z,25.5
2016-08-30T11:16:44.357Z,25.39
2016-08-30T11:17:44.313Z,25.34
2016-08-30T11:18:44.312Z,25.35
2016-08-30T11:19:44.238Z,25.28
2016-08-30T11:20:44.231Z,25.32
2016-08-30T11:21:44.162Z,25.39
2016-08-30T11:22:44.171Z,25.43
2016-08-30T11:23:44.962Z,25.46
2016-08-30T11:24:44.101Z,25.47
2016-08-30T11:25:44.085Z,25.34
2016-08-30T11:26:59.748Z,25.19
2016-08-30T11:27:59.556Z,25.1
2016-08-30T11:28:44.331Z,25.24
2016-08-30T11:29:44.157Z,25.34
2016-08-30T11:30:44.252Z,25.38
2016-08-30T11:31:45.320Z,25.46
2016-08-30T11:32:58.704Z,25.61
2016-08-30T11:33:44.362Z,25.68
2016-08-30T11:34:45.414Z,25.74
2016-08-30T11:35:59.777Z,25.61
2016-08-30T11:36:43.819Z,25.37
2016-08-30T11:37:58.533Z,25.46
2016-08-30T11:38:44.044Z,25.59
2016-08-30T11:39:43.784Z,25.65
2016-08-30T11:40:43.752Z,25.64
2016-08-30T11:41:44.718Z,25.75
2016-08-30T11:42:43.725Z,25.72
2016-08-30T11:43:43.665Z,25.42
2016-08-30T11:44:44.457Z,25.46
2016-08-30T11:45:44.763Z,25.39
2016-08-30T11:46:43.599Z,25.44
2016-08-30T11:47:59.333Z,25.67
2016-08-30T11:48:44.189Z,25.69
2016-08-30T11:49:43.537Z,25.83
2016-08-30T11:51:44.237Z,25.35
2016-08-30T11:52:49.705Z,25.42
2016-08-30T11:53:43.446Z,25.47
2016-08-30T11:54:44.226Z,25.59
2016-08-30T11:55:45.239Z,25.52
2016-08-30T11:56:44.683Z,25.46
2016-08-30T11:57:58.380Z,25.8
2016-08-30T11:58:44.872Z,25.89
2016-08-30T11:59:44.636Z,25.94
2016-08-30T12:00:46.140Z,26.01
2016-08-30T12:01:44.032Z,26.02
2016-08-30T12:02:43.218Z,26.27
2016-08-30T12:03:43.243Z,26.29
2016-08-30T12:04:44.139Z,26.77
2016-08-30T12:05:43.154Z,27.01
2016-08-30T12:06:43.880Z,27.13
2016-08-30T12:07:43.115Z,27.11
2016-08-30T12:08:43.072Z,27.05
2016-08-30T12:09:43.703Z,27.06
2016-08-30T12:10:43.044Z,27.11
2016-08-30T12:11:43.030Z,27.11
2016-08-30T12:12:43.150Z,27.21
2016-08-30T12:13:46.020Z,27.2
2016-08-30T12:14:43.001Z,27.17
2016-08-30T12:15:43.715Z,27.13
2016-08-30T12:16:42.917Z,27.58
2016-08-30T12:17:42.913Z,28.81
2016-08-30T12:18:49.221Z,30.24
2016-08-30T12:19:42.834Z,30.65
2016-08-30T12:20:57.661Z,30.29
2016-08-30T12:21:44.410Z,29.7
2016-08-30T12:22:57.634Z,29.16
2016-08-30T12:23:43.613Z,29.15
2016-08-30T12:24:42.949Z,28.69
2016-08-30T12:25:43.527Z,28.58
2016-08-30T12:26:42.690Z,28.4
2016-08-30T12:27:42.668Z,28.31
2016-08-30T12:28:43.962Z,28.35
2016-08-30T12:29:59.097Z,27.99
2016-08-30T12:30:42.952Z,27.88
2016-08-30T12:31:57.265Z,27.58
2016-08-30T12:32:42.539Z,27.53
2016-08-30T12:34:42.516Z,27.51
2016-08-30T12:36:42.514Z,27.2
2016-08-30T12:37:42.433Z,27.02
2016-08-30T12:38:43.185Z,27.19
2016-08-30T12:39:42.403Z,27.13
2016-08-30T12:40:42.368Z,27.09
2016-08-30T12:41:42.456Z,27.04
2016-08-30T12:42:42.311Z,26.65
2016-08-30T12:43:42.367Z,26.84
2016-08-30T12:44:42.277Z,26.79
2016-08-30T12:45:42.300Z,26.81
2016-08-30T12:46:42.247Z,26.83
2016-08-30T12:47:42.210Z,26.8
2016-08-30T12:48:43.737Z,26.76
2016-08-30T12:49:42.195Z,26.59
2016-08-30T12:50:42.986Z,26.76
2016-08-30T12:51:42.894Z,26.79
2016-08-30T12:52:43.005Z,26.73
2016-08-30T12:53:57.072Z,26.83
2016-08-30T12:54:42.043Z,26.91
2016-08-30T12:55:42.772Z,26.83
2016-08-30T12:56:42.769Z,26.79
2016-08-30T12:57:42.787Z,26.86
2016-08-30T12:58:42.052Z,26.84
2016-08-30T12:59:41.927Z,26.91
2016-08-30T13:00:41.913Z,26.91
2016-08-30T13:01:41.954Z,26.92
2016-08-30T13:02:41.867Z,26.83
2016-08-30T13:03:41.841Z,26.81
2016-08-30T13:05:43.046Z,27.02
2016-08-30T13:06:42.839Z,27.02
2016-08-30T13:07:41.918Z,27.05
2016-08-30T13:08:41.710Z,27.23
2016-08-30T13:09:41.720Z,27.31
2016-08-30T13:10:42.453Z,27.84
2016-08-30T13:11:42.752Z,27.88
2016-08-30T13:12:41.682Z,27.98
2016-08-30T13:13:42.378Z,27.82
2016-08-30T13:14:41.606Z,27.76
2016-08-30T13:15:41.638Z,27.8
2016-08-30T13:16:41.571Z,27.74
2016-08-30T13:17:41.678Z,27.47
2016-08-30T13:18:41.835Z,27.53
2016-08-30T13:19:41.478Z,27.42
2016-08-30T13:20:42.296Z,27.58